createdAt,value
2022-11-29T00:00:11.065Z,55.12
2022-11-29T00:01:12.069Z,62.34
2022-11-29T00:02:11.174Z,52.60
2022-11-29T00:03:11.204Z,44.42
2022-11-29T00:04:11.069Z,73.30
2022-11-29T00:05:11.060Z,66.40
2022-11-29T00:06:14.063Z,54.62
2022-11-29T00:07:11.068Z,74.04
2022-11-29T00:08:11.060Z,72.26
2022-11-29T00:09:11.064Z,65.62
2022-11-29T00:10:11.068Z,58.08
2022-11-29T00:11:11.062Z,64.24
2022-11-29T00:12:15.061Z,61.08
2022-11-29T00:13:11.063Z,58.62
2022-11-29T00:14:11.071Z,66.32
2022-11-29T00:15:11.062Z,71.20
2022-11-29T00:16:11.142Z,83.26
2022-11-29T00:17:11.072Z,74.32
2022-11-29T00:18:11.062Z,56.04
2022-11-29T00:19:11.067Z,49.32
2022-11-29T00:20:11.071Z,59.94
2022-11-29T00:21:11.062Z,67.20
2022-11-29T00:22:11.063Z,69.44
2022-11-29T00:23:11.064Z,76.30
2022-11-29T00:24:11.061Z,60.32
2022-11-29T00:25:11.067Z,50.68
2022-11-29T00:26:11.071Z,67.30
2022-11-29T00:27:11.062Z,77.58
2022-11-29T00:28:11.060Z,61.90
2022-11-29T00:29:11.071Z,53.68
2022-11-29T00:30:11.063Z,66.64
2022-11-29T00:31:18.087Z,52.90
2022-11-29T00:32:11.066Z,52.82
2022-11-29T00:33:11.064Z,71.76
2022-11-29T00:34:12.061Z,56.34
2022-11-29T00:35:11.064Z,64.30
2022-11-29T00:36:11.064Z,52.40
2022-11-29T00:37:11.064Z,60.58
2022-11-29T00:38:11.065Z,66.26
2022-11-29T00:39:11.067Z,63.04
2022-11-29T00:40:11.063Z,60.60
2022-11-29T00:41:11.064Z,56.56
2022-11-29T00:42:11.065Z,56.16
2022-11-29T00:43:11.063Z,63.26
2022-11-29T00:44:15.319Z,56.60
2022-11-29T00:45:13.076Z,60.78
2022-11-29T00:46:11.161Z,69.50
2022-11-29T00:47:11.068Z,53.90
2022-11-29T00:48:11.073Z,53.92
2022-11-29T00:49:11.066Z,54.82
2022-11-29T00:50:11.072Z,59.54
2022-11-29T00:51:11.073Z,51.02
2022-11-29T00:52:11.066Z,54.52
2022-11-29T00:53:11.061Z,56.12
2022-11-29T00:54:11.084Z,62.96
2022-11-29T00:55:11.064Z,47.16
2022-11-29T00:56:11.062Z,50.72
2022-11-29T00:57:11.072Z,59.66
2022-11-29T00:58:11.066Z,48.32
2022-11-29T00:59:11.070Z,57.48
2022-11-29T01:00:11.074Z,50.10
2022-11-29T01:01:11.092Z,56.74
2022-11-29T01:02:11.135Z,49.14
2022-11-29T01:03:11.080Z,44.76
2022-11-29T01:04:11.067Z,50.56
2022-11-29T01:05:11.063Z,43.16
2022-11-29T01:06:11.072Z,61.28
2022-11-29T01:07:11.065Z,50.28
2022-11-29T01:08:11.064Z,52.98
2022-11-29T01:09:11.069Z,52.64
2022-11-29T01:10:11.067Z,43.32
2022-11-29T01:11:16.190Z,46.56
2022-11-29T01:12:11.067Z,45.70
2022-11-29T01:13:11.070Z,44.26
2022-11-29T01:14:11.065Z,45.92
2022-11-29T01:15:11.066Z,55.86
2022-11-29T01:16:11.076Z,42.06
2022-11-29T01:17:11.065Z,42.78
2022-11-29T01:18:11.071Z,47.52
2022-11-29T01:19:11.075Z,60.46
2022-11-29T01:20:11.071Z,64.52
2022-11-29T01:21:12.069Z,58.34
2022-11-29T01:22:11.076Z,48.66
2022-11-29T01:23:11.066Z,49.70
2022-11-29T01:24:11.066Z,49.46
2022-11-29T01:25:11.077Z,55.34
2022-11-29T01:26:12.069Z,51.26
2022-11-29T01:27:11.071Z,61.92
2022-11-29T01:28:11.076Z,58.60
2022-11-29T01:29:13.072Z,58.78
2022-11-29T01:30:11.064Z,53.94
2022-11-29T01:31:14.120Z,50.46
2022-11-29T01:32:11.068Z,55.88
2022-11-29T01:33:11.069Z,53.88
2022-11-29T01:34:11.069Z,56.36
2022-11-29T01:35:11.069Z,48.72
2022-11-29T01:36:11.069Z,47.86
2022-11-29T01:37:11.069Z,42.90
2022-11-29T01:38:11.077Z,48.64
2022-11-29T01:39:11.079Z,51.38
2022-11-29T01:40:11.069Z,38.08
2022-11-29T01:41:13.078Z,44.66
2022-11-29T01:42:13.068Z,50.06
2022-11-29T01:43:17.070Z,46.56
2022-11-29T01:44:19.078Z,38.46
2022-11-29T01:45:19.071Z,38.46
2022-11-29T01:46:12.094Z,38.58
2022-11-29T01:47:12.077Z,49.42
2022-11-29T01:48:12.079Z,49.26
2022-11-29T01:49:16.069Z,42.90
2022-11-29T01:50:11.070Z,42.82
2022-11-29T01:51:11.070Z,40.02
2022-11-29T01:52:19.075Z,39.20
2022-11-29T01:53:12.070Z,50.50
2022-11-29T01:54:11.073Z,48.10
2022-11-29T01:55:11.081Z,42.52
2022-11-29T01:56:11.112Z,47.52
2022-11-29T01:57:11.068Z,46.18
2022-11-29T01:58:11.073Z,49.82
2022-11-29T01:59:13.071Z,42.90
2022-11-29T02:00:16.077Z,40.40
2022-11-29T02:01:11.124Z,43.16
2022-11-29T02:02:19.119Z,45.70
2022-11-29T02:03:11.072Z,47.54
2022-11-29T02:04:11.078Z,45.50
2022-11-29T02:05:12.080Z,53.60
2022-11-29T02:06:11.072Z,48.66
2022-11-29T02:07:11.066Z,45.70
2022-11-29T02:08:12.075Z,43.72
2022-11-29T02:09:19.072Z,48.80
2022-11-29T02:10:11.072Z,49.64
2022-11-29T02:11:21.076Z,42.14
2022-11-29T02:12:21.080Z,42.92
2022-11-29T02:13:19.071Z,43.58
2022-11-29T02:14:19.072Z,49.32
2022-11-29T02:15:19.075Z,41.44
2022-11-29T02:16:21.106Z,52.50
2022-11-29T02:17:19.085Z,59.58
2022-11-29T02:18:19.073Z,62.80
2022-11-29T02:19:19.071Z,55.50
2022-11-29T02:20:19.076Z,47.76
2022-11-29T02:21:21.073Z,46.08
2022-11-29T02:22:21.080Z,46.32
2022-11-29T02:23:21.075Z,62.36
2022-11-29T02:24:21.073Z,44.34
2022-11-29T02:25:19.074Z,52.86
2022-11-29T02:26:21.073Z,49.28
2022-11-29T02:27:19.077Z,62.72
2022-11-29T02:28:19.075Z,54.38
2022-11-29T02:29:23.074Z,65.28
2022-11-29T02:30:19.075Z,57.98
2022-11-29T02:31:21.089Z,51.84
2022-11-29T02:32:19.077Z,69.38
2022-11-29T02:33:19.081Z,55.34
2022-11-29T02:34:20.077Z,57.88
2022-11-29T02:35:21.074Z,48.04
2022-11-29T02:36:19.077Z,50.62
2022-11-29T02:37:19.078Z,42.54
2022-11-29T02:38:19.076Z,49.42
2022-11-29T02:39:19.073Z,40.32
2022-11-29T02:40:21.068Z,60.00
2022-11-29T02:41:19.074Z,45.40
2022-11-29T02:42:21.083Z,56.78
2022-11-29T02:43:19.076Z,46.46
2022-11-29T02:44:19.076Z,44.06
2022-11-29T02:45:21.076Z,48.90
2022-11-29T02:46:19.161Z,58.00
2022-11-29T02:47:21.076Z,51.76
2022-11-29T02:48:19.067Z,53.76
2022-11-29T02:49:19.061Z,58.76
2022-11-29T02:50:19.057Z,46.84
2022-11-29T02:51:19.061Z,69.16
2022-11-29T02:52:17.065Z,82.64
2022-11-29T02:53:19.060Z,58.02
2022-11-29T02:54:21.058Z,89.10
2022-11-29T02:55:21.059Z,129.62
2022-11-29T02:56:21.067Z,68.22
2022-11-29T02:57:19.060Z,64.58
2022-11-29T02:58:21.068Z,74.00
2022-11-29T02:59:19.061Z,63.66
2022-11-29T03:00:15.063Z,82.56
2022-11-29T03:01:18.126Z,77.60
2022-11-29T03:02:21.094Z,63.76
2022-11-29T03:03:19.068Z,57.80
2022-11-29T03:04:19.060Z,51.58
2022-11-29T03:05:21.060Z,41.76
2022-11-29T03:06:21.061Z,44.02
2022-11-29T03:07:19.112Z,47.60
2022-11-29T03:08:19.064Z,42.56
2022-11-29T03:09:21.063Z,43.28
2022-11-29T03:10:17.061Z,50.82
2022-11-29T03:11:19.063Z,46.18
2022-11-29T03:12:18.060Z,39.82
2022-11-29T03:13:21.067Z,50.36
2022-11-29T03:14:19.064Z,36.20
2022-11-29T03:15:21.060Z,38.82
2022-11-29T03:16:23.061Z,56.30
2022-11-29T03:17:21.057Z,41.00
2022-11-29T03:18:19.062Z,59.66
2022-11-29T03:19:21.069Z,52.16
2022-11-29T03:20:21.062Z,46.38
2022-11-29T03:21:18.062Z,72.80
2022-11-29T03:22:21.062Z,70.42
2022-11-29T03:23:19.068Z,82.04
2022-11-29T03:24:15.064Z,58.24
2022-11-29T03:25:18.061Z,39.22
2022-11-29T03:26:14.059Z,82.66
2022-11-29T03:27:17.061Z,82.20
2022-11-29T03:28:21.070Z,76.14
2022-11-29T03:29:19.063Z,41.66
2022-11-29T03:30:13.061Z,47.22
2022-11-29T03:31:21.156Z,42.32
2022-11-29T03:32:19.068Z,141.74
2022-11-29T03:33:19.069Z,60.26
2022-11-29T03:34:19.065Z,72.48
2022-11-29T03:35:21.062Z,158.34
2022-11-29T03:36:19.064Z,51.28
2022-11-29T03:37:19.065Z,92.26
2022-11-29T03:38:21.066Z,84.22
2022-11-29T03:39:17.069Z,71.86
2022-11-29T03:40:13.063Z,64.14
2022-11-29T03:41:19.064Z,50.88
2022-11-29T03:42:13.072Z,72.86
2022-11-29T03:43:19.071Z,145.50
2022-11-29T03:44:19.066Z,106.36
2022-11-29T03:45:17.063Z,50.36
2022-11-29T03:46:22.133Z,55.34
2022-11-29T03:47:16.065Z,71.06
2022-11-29T03:48:16.065Z,113.44
2022-11-29T03:49:21.061Z,107.40
2022-11-29T03:50:16.059Z,69.92
2022-11-29T03:51:18.070Z,67.56
2022-11-29T03:52:19.067Z,81.14
2022-11-29T03:53:21.062Z,68.04
2022-11-29T03:54:16.065Z,55.82
2022-11-29T03:55:19.063Z,55.96
2022-11-29T03:56:19.079Z,78.54
2022-11-29T03:57:11.091Z,32.56
2022-11-29T03:58:19.063Z,51.12
2022-11-29T03:59:19.063Z,35.80
2022-11-29T04:00:14.070Z,39.82
2022-11-29T04:01:19.114Z,55.48
2022-11-29T04:02:19.142Z,87.12
2022-11-29T04:03:19.067Z,69.86
2022-11-29T04:04:19.073Z,71.12
2022-11-29T04:05:19.067Z,82.44
2022-11-29T04:06:19.063Z,77.10
2022-11-29T04:07:19.083Z,56.62
2022-11-29T04:08:19.067Z,66.12
2022-11-29T04:09:21.077Z,68.12
2022-11-29T04:10:19.066Z,73.12
2022-11-29T04:11:23.065Z,73.74
2022-11-29T04:12:19.064Z,90.52
2022-11-29T04:13:21.067Z,63.62
2022-11-29T04:14:21.065Z,234.68
2022-11-29T04:15:19.074Z,110.28
2022-11-29T04:16:19.100Z,106.60
2022-11-29T04:17:19.065Z,83.76
2022-11-29T04:18:19.062Z,119.12
2022-11-29T04:19:19.064Z,138.58
2022-11-29T04:20:21.075Z,86.54
2022-11-29T04:21:21.066Z,86.36
2022-11-29T04:22:21.067Z,63.72
2022-11-29T04:23:19.071Z,47.42
2022-11-29T04:24:19.068Z,61.58
2022-11-29T04:25:19.069Z,76.56
2022-11-29T04:26:19.069Z,95.30
2022-11-29T04:27:19.068Z,138.62
2022-11-29T04:28:19.062Z,69.14
2022-11-29T04:29:19.065Z,96.38
2022-11-29T04:30:19.079Z,167.12
2022-11-29T04:31:19.129Z,113.46
2022-11-29T04:32:19.066Z,188.32
2022-11-29T04:33:19.070Z,161.92
2022-11-29T04:34:19.068Z,311.08
2022-11-29T04:35:19.069Z,118.30
2022-11-29T04:36:19.067Z,104.28
2022-11-29T04:37:19.066Z,189.10
2022-11-29T04:38:19.065Z,64.88
2022-11-29T04:39:21.080Z,112.56
2022-11-29T04:40:19.068Z,49.20
2022-11-29T04:41:19.065Z,69.48
2022-11-29T04:42:19.064Z,72.32
2022-11-29T04:43:19.068Z,110.30
2022-11-29T04:44:21.075Z,107.64
2022-11-29T04:45:23.068Z,74.72
2022-11-29T04:46:21.150Z,91.08
2022-11-29T04:47:19.067Z,120.22
2022-11-29T04:48:19.069Z,94.72
2022-11-29T04:49:23.070Z,100.48
2022-11-29T04:50:19.079Z,94.46
2022-11-29T04:51:19.068Z,81.40
2022-11-29T04:52:19.067Z,106.32
2022-11-29T04:53:19.070Z,150.26
2022-11-29T04:54:21.070Z,45.40
2022-11-29T04:55:25.006Z,133.00
2022-11-29T04:56:23.389Z,88.56
2022-11-29T04:57:19.067Z,73.84
2022-11-29T04:58:23.072Z,78.44
2022-11-29T04:59:19.065Z,105.42
2022-11-29T05:00:11.068Z,105.50
2022-11-29T05:01:19.154Z,112.14
2022-11-29T05:02:21.133Z,151.30
2022-11-29T05:03:19.069Z,93.28
2022-11-29T05:04:19.068Z,123.68
2022-11-29T05:05:19.073Z,158.12
2022-11-29T05:06:19.069Z,95.34
2022-11-29T05:07:19.174Z,171.70
2022-11-29T05:08:19.064Z,112.36
2022-11-29T05:09:19.070Z,72.10
2022-11-29T05:10:19.082Z,66.62
2022-11-29T05:11:24.990Z,205.32
2022-11-29T05:12:23.042Z,237.78
2022-11-29T05:13:21.064Z,151.28
2022-11-29T05:14:21.069Z,80.18
2022-11-29T05:15:19.071Z,107.50
2022-11-29T05:16:21.147Z,99.82
2022-11-29T05:17:19.071Z,116.86
2022-11-29T05:18:21.070Z,130.46
2022-11-29T05:19:21.067Z,49.88
2022-11-29T05:20:19.070Z,196.10
2022-11-29T05:21:18.076Z,97.02
2022-11-29T05:22:23.071Z,115.38
2022-11-29T05:23:21.069Z,91.34
2022-11-29T05:24:21.072Z,62.96
2022-11-29T05:25:19.071Z,90.56
2022-11-29T05:26:19.071Z,109.30
2022-11-29T05:27:19.071Z,48.56
2022-11-29T05:28:23.068Z,57.86
2022-11-29T05:29:19.070Z,70.14
2022-11-29T05:30:18.067Z,74.34
2022-11-29T05:31:19.091Z,114.60
2022-11-29T05:32:21.084Z,59.80
2022-11-29T05:33:23.072Z,98.36
2022-11-29T05:34:19.069Z,74.42
2022-11-29T05:35:19.071Z,108.50
2022-11-29T05:36:19.070Z,88.10
2022-11-29T05:37:19.082Z,76.32
2022-11-29T05:38:21.085Z,73.92
2022-11-29T05:39:19.072Z,82.64
2022-11-29T05:40:19.066Z,96.84
2022-11-29T05:41:19.070Z,178.92
2022-11-29T05:42:19.083Z,71.88
2022-11-29T05:43:19.073Z,43.78
2022-11-29T05:44:19.069Z,68.94
2022-11-29T05:45:19.074Z,44.44
2022-11-29T05:46:18.104Z,106.10
2022-11-29T05:47:14.080Z,116.62
2022-11-29T05:48:21.061Z,105.58
2022-11-29T05:49:19.059Z,83.14
2022-11-29T05:50:19.056Z,76.76
2022-11-29T05:51:19.061Z,110.80
2022-11-29T05:52:19.075Z,81.34
2022-11-29T05:53:21.062Z,65.56
2022-11-29T05:54:19.059Z,75.06
2022-11-29T05:55:19.068Z,44.42
2022-11-29T05:56:19.059Z,38.26
2022-11-29T05:57:19.068Z,54.80
2022-11-29T05:58:20.063Z,80.42
2022-11-29T05:59:13.060Z,61.40
2022-11-29T06:00:12.064Z,34.66
2022-11-29T06:01:18.063Z,59.76
2022-11-29T06:02:19.095Z,54.50
2022-11-29T06:03:21.130Z,42.16
2022-11-29T06:04:22.060Z,52.58
2022-11-29T06:05:22.064Z,29.34
2022-11-29T06:06:22.070Z,43.00
2022-11-29T06:07:19.160Z,78.86
2022-11-29T06:08:19.059Z,98.60
2022-11-29T06:09:21.064Z,75.24
2022-11-29T06:10:13.061Z,101.16
2022-11-29T06:11:20.062Z,42.02
2022-11-29T06:12:20.616Z,64.20
2022-11-29T06:13:23.063Z,46.88
2022-11-29T06:14:19.064Z,74.00
2022-11-29T06:15:19.063Z,68.16
2022-11-29T06:16:21.186Z,85.00
2022-11-29T06:17:19.067Z,43.14
2022-11-29T06:18:21.062Z,60.20
2022-11-29T06:19:19.064Z,79.90
2022-11-29T06:20:20.065Z,60.54
2022-11-29T06:21:19.075Z,46.24
2022-11-29T06:22:19.063Z,61.42
2022-11-29T06:23:21.063Z,59.96
2022-11-29T06:24:24.798Z,55.12
2022-11-29T06:25:21.054Z,29.92
2022-11-29T06:26:21.072Z,54.50
2022-11-29T06:27:19.063Z,55.74
2022-11-29T06:28:21.062Z,45.32
2022-11-29T06:29:19.074Z,55.78
2022-11-29T06:30:16.066Z,37.32
2022-11-29T06:31:19.153Z,38.50
2022-11-29T06:32:20.064Z,52.00
2022-11-29T06:33:19.065Z,36.48
2022-11-29T06:34:19.064Z,59.36
2022-11-29T06:35:23.070Z,43.94
2022-11-29T06:36:21.063Z,61.14
2022-11-29T06:37:19.070Z,32.58
2022-11-29T06:38:20.066Z,28.90
2022-11-29T06:39:11.066Z,33.42
2022-11-29T06:40:12.059Z,55.38
2022-11-29T06:41:17.071Z,76.50
2022-11-29T06:42:11.066Z,46.10
2022-11-29T06:43:11.066Z,53.46
2022-11-29T06:44:11.063Z,42.94
2022-11-29T06:45:12.075Z,40.86
2022-11-29T06:46:21.114Z,44.10
2022-11-29T06:47:19.060Z,33.18
2022-11-29T06:48:11.067Z,31.22
2022-11-29T06:49:19.067Z,34.62
2022-11-29T06:50:21.066Z,40.28
2022-11-29T06:51:19.064Z,26.62
2022-11-29T06:52:19.068Z,36.30
2022-11-29T06:53:19.068Z,44.36
2022-11-29T06:54:21.066Z,35.30
2022-11-29T06:55:18.068Z,46.32
2022-11-29T06:56:19.064Z,34.84
2022-11-29T06:57:21.062Z,40.60
2022-11-29T06:58:21.066Z,35.80
2022-11-29T06:59:21.068Z,35.28
2022-11-29T07:00:19.074Z,34.96
2022-11-29T07:01:19.139Z,41.64
2022-11-29T07:02:19.109Z,52.84
2022-11-29T07:03:19.067Z,42.08
2022-11-29T07:04:21.065Z,32.70
2022-11-29T07:05:19.072Z,38.76
2022-11-29T07:06:19.065Z,49.58
2022-11-29T07:07:17.160Z,44.60
2022-11-29T07:08:16.068Z,44.58
2022-11-29T07:09:15.065Z,34.76
2022-11-29T07:10:18.083Z,35.12
2022-11-29T07:11:12.064Z,36.06
2022-11-29T07:12:11.070Z,36.68
2022-11-29T07:13:12.075Z,48.56
2022-11-29T07:14:11.066Z,33.66
2022-11-29T07:15:14.062Z,44.18
2022-11-29T07:16:21.122Z,48.62
2022-11-29T07:17:19.068Z,74.92
2022-11-29T07:18:19.066Z,71.52
2022-11-29T07:19:19.063Z,83.90
2022-11-29T07:20:19.068Z,71.00
2022-11-29T07:21:19.076Z,69.48
2022-11-29T07:22:19.067Z,38.70
2022-11-29T07:23:19.066Z,88.86
2022-11-29T07:24:19.063Z,100.86
2022-11-29T07:25:19.067Z,56.08
2022-11-29T07:26:21.075Z,51.22
2022-11-29T07:27:21.070Z,56.66
2022-11-29T07:28:21.071Z,55.54
2022-11-29T07:29:19.065Z,71.84
2022-11-29T07:30:17.076Z,67.44
2022-11-29T07:31:23.095Z,160.98
2022-11-29T07:32:21.077Z,163.18
2022-11-29T07:33:21.069Z,124.94
2022-11-29T07:34:21.067Z,75.92
2022-11-29T07:35:18.069Z,93.14
2022-11-29T07:36:21.068Z,51.50
2022-11-29T07:37:19.085Z,46.68
2022-11-29T07:38:19.070Z,93.80
2022-11-29T07:39:21.072Z,139.64
2022-11-29T07:40:18.067Z,131.26
2022-11-29T07:41:17.068Z,41.68
2022-11-29T07:42:19.075Z,38.00
2022-11-29T07:43:19.068Z,35.88
2022-11-29T07:44:19.067Z,46.52
2022-11-29T07:45:19.065Z,71.20
2022-11-29T07:46:11.071Z,57.36
2022-11-29T07:47:11.077Z,57.90
2022-11-29T07:48:12.070Z,74.34
2022-11-29T07:49:12.065Z,122.84
2022-11-29T07:50:11.073Z,87.40
2022-11-29T07:51:11.069Z,84.60
2022-11-29T07:52:13.068Z,96.04
2022-11-29T07:53:18.071Z,61.12
2022-11-29T07:54:12.112Z,61.62
2022-11-29T07:55:18.525Z,42.68
2022-11-29T07:56:13.790Z,61.66
2022-11-29T07:57:11.069Z,55.84
2022-11-29T07:58:12.069Z,58.24
2022-11-29T07:59:15.069Z,65.78
2022-11-29T08:00:11.069Z,60.88
2022-11-29T08:01:11.166Z,58.76
2022-11-29T08:02:11.952Z,53.32
2022-11-29T08:03:11.072Z,38.66
2022-11-29T08:04:11.080Z,44.16
2022-11-29T08:05:11.071Z,34.20
2022-11-29T08:06:11.068Z,59.86
2022-11-29T08:07:11.070Z,71.46
2022-11-29T08:08:11.075Z,60.66
2022-11-29T08:09:11.109Z,69.08
2022-11-29T08:10:11.074Z,54.84
2022-11-29T08:11:13.071Z,48.94
2022-11-29T08:12:11.070Z,49.36
2022-11-29T08:13:11.076Z,65.04
2022-11-29T08:14:11.078Z,46.58
2022-11-29T08:15:11.084Z,69.12
2022-11-29T08:16:14.108Z,56.92
2022-11-29T08:17:11.078Z,37.72
2022-11-29T08:18:11.069Z,66.10
2022-11-29T08:19:11.068Z,48.32
2022-11-29T08:20:11.074Z,41.14
2022-11-29T08:21:11.071Z,60.40
2022-11-29T08:22:11.070Z,57.86
2022-11-29T08:23:12.087Z,59.50
2022-11-29T08:24:11.072Z,58.92
2022-11-29T08:25:11.068Z,55.24
2022-11-29T08:26:11.074Z,56.64
2022-11-29T08:27:11.075Z,68.40
2022-11-29T08:28:11.076Z,66.20
2022-11-29T08:29:11.081Z,59.86
2022-11-29T08:30:11.074Z,76.90
2022-11-29T08:31:12.123Z,54.78
2022-11-29T08:32:11.076Z,51.94
2022-11-29T08:33:11.074Z,60.64
2022-11-29T08:34:11.074Z,43.36
2022-11-29T08:35:11.075Z,44.66
2022-11-29T08:36:17.092Z,56.68
2022-11-29T08:37:11.071Z,57.12
2022-11-29T08:38:11.071Z,51.36
2022-11-29T08:39:11.075Z,46.84
2022-11-29T08:40:11.072Z,54.34
2022-11-29T08:41:11.072Z,40.58
2022-11-29T08:42:11.085Z,62.82
2022-11-29T08:43:11.074Z,47.64
2022-11-29T08:44:11.076Z,53.94
2022-11-29T08:45:11.080Z,59.04
2022-11-29T08:46:15.256Z,72.98
2022-11-29T08:47:17.067Z,63.80
2022-11-29T08:48:11.058Z,63.62
2022-11-29T08:49:11.060Z,46.10
2022-11-29T08:50:17.059Z,60.74
2022-11-29T08:51:11.059Z,58.14
2022-11-29T08:52:15.066Z,50.40
2022-11-29T08:53:15.060Z,49.38
2022-11-29T08:54:11.056Z,51.48
2022-11-29T08:55:11.059Z,45.60
2022-11-29T08:56:59.670Z,58.72
2022-11-29T08:57:39.813Z,72.44
2022-11-29T08:58:13.031Z,50.62
2022-11-29T08:59:11.058Z,68.00
2022-11-29T09:00:11.066Z,52.70
2022-11-29T09:01:15.098Z,47.56
2022-11-29T09:02:11.104Z,54.70
2022-11-29T09:03:17.069Z,53.60
2022-11-29T09:04:12.062Z,50.14
2022-11-29T09:05:11.063Z,50.74
2022-11-29T09:06:17.062Z,50.04
2022-11-29T09:07:11.058Z,50.80
2022-11-29T09:08:11.061Z,45.90
2022-11-29T09:09:11.060Z,54.86
2022-11-29T09:10:12.061Z,38.74
2022-11-29T09:11:11.126Z,48.62
2022-11-29T09:12:12.058Z,51.12
2022-11-29T09:13:11.058Z,40.42
2022-11-29T09:14:14.062Z,48.06
2022-11-29T09:15:11.058Z,40.16
2022-11-29T09:16:11.258Z,44.42
2022-11-29T09:17:11.070Z,37.06
2022-11-29T09:18:11.063Z,29.80
2022-11-29T09:19:11.056Z,27.56
2022-11-29T09:20:11.065Z,31.12
2022-11-29T09:21:11.062Z,31.26
2022-11-29T09:22:11.057Z,33.50
2022-11-29T09:23:11.061Z,35.38
2022-11-29T09:24:11.060Z,30.16
2022-11-29T09:25:11.062Z,36.08
2022-11-29T09:26:11.061Z,35.50
2022-11-29T09:27:11.065Z,35.82
2022-11-29T09:28:11.060Z,34.96
2022-11-29T09:29:11.059Z,39.66
2022-11-29T09:30:11.062Z,31.02
2022-11-29T09:31:12.058Z,39.02
2022-11-29T09:32:11.062Z,37.16
2022-11-29T09:33:11.063Z,35.38
2022-11-29T09:34:12.060Z,33.56
2022-11-29T09:35:11.062Z,34.52
2022-11-29T09:36:11.066Z,45.04
2022-11-29T09:37:11.059Z,39.72
2022-11-29T09:38:12.062Z,35.86
2022-11-29T09:39:11.064Z,35.50
2022-11-29T09:40:21.109Z,35.40
2022-11-29T09:41:19.065Z,28.22
2022-11-29T09:42:21.065Z,34.92
2022-11-29T09:43:19.072Z,35.12
2022-11-29T09:44:21.064Z,40.90
2022-11-29T09:45:16.063Z,33.44
2022-11-29T09:46:19.090Z,36.30
2022-11-29T09:47:19.071Z,34.72
2022-11-29T09:48:19.061Z,33.54
2022-11-29T09:49:19.060Z,31.56
2022-11-29T09:50:19.060Z,34.34
2022-11-29T09:51:21.062Z,30.64
2022-11-29T09:52:19.070Z,32.02
2022-11-29T09:53:19.064Z,30.96
2022-11-29T09:54:19.062Z,26.28
2022-11-29T09:55:19.059Z,27.02
2022-11-29T09:56:18.063Z,32.20
2022-11-29T09:57:11.202Z,30.08
2022-11-29T09:58:15.065Z,21.12
2022-11-29T09:59:18.066Z,29.24
2022-11-29T10:00:15.063Z,27.82
2022-11-29T10:01:16.143Z,24.28
2022-11-29T10:02:21.981Z,30.66
2022-11-29T10:03:19.065Z,31.36
2022-11-29T10:04:19.067Z,28.94
2022-11-29T10:05:21.068Z,25.90
2022-11-29T10:06:17.065Z,31.14
2022-11-29T10:07:20.108Z,30.30
2022-11-29T10:08:19.068Z,25.78
2022-11-29T10:09:21.067Z,27.72
2022-11-29T10:10:21.074Z,31.74
2022-11-29T10:11:19.065Z,26.68
2022-11-29T10:12:18.071Z,30.48
2022-11-29T10:13:19.060Z,27.38
2022-11-29T10:14:16.065Z,27.62
2022-11-29T10:15:22.067Z,34.96
2022-11-29T10:16:18.108Z,30.54
2022-11-29T10:17:21.064Z,32.76
2022-11-29T10:18:21.074Z,25.02
2022-11-29T10:19:20.063Z,36.04
2022-11-29T10:20:20.071Z,35.26
2022-11-29T10:21:17.068Z,34.66
2022-11-29T10:22:19.085Z,30.24
2022-11-29T10:23:19.069Z,29.82
2022-11-29T10:24:15.066Z,39.02
2022-11-29T10:25:15.074Z,30.04
2022-11-29T10:26:12.066Z,38.34
2022-11-29T10:27:19.068Z,39.92
2022-11-29T10:28:19.068Z,28.46
2022-11-29T10:29:13.073Z,37.60
2022-11-29T10:30:15.067Z,29.26
2022-11-29T10:31:18.128Z,32.32
2022-11-29T10:32:15.069Z,38.38
2022-11-29T10:33:19.067Z,31.02
2022-11-29T10:34:15.068Z,34.98
2022-11-29T10:35:14.068Z,45.02
2022-11-29T10:36:23.069Z,41.96
2022-11-29T10:37:14.077Z,36.06
2022-11-29T10:38:31.108Z,40.02
2022-11-29T10:39:21.094Z,33.10
2022-11-29T10:40:18.066Z,44.36
2022-11-29T10:41:15.085Z,45.22
2022-11-29T10:42:24.065Z,41.62
2022-11-29T10:43:11.068Z,46.14
2022-11-29T10:44:12.066Z,41.02
2022-11-29T10:45:19.076Z,45.94
2022-11-29T10:46:18.176Z,38.78
2022-11-29T10:47:11.301Z,34.74
2022-11-29T10:48:16.069Z,35.02
2022-11-29T10:49:15.069Z,34.34
2022-11-29T10:50:17.160Z,36.76
2022-11-29T10:51:15.069Z,48.22
2022-11-29T10:52:19.074Z,41.50
2022-11-29T10:53:17.069Z,39.32
2022-11-29T10:54:21.065Z,45.08
2022-11-29T10:55:16.063Z,44.56
2022-11-29T10:56:19.072Z,43.50
2022-11-29T10:57:16.077Z,36.34
2022-11-29T10:58:26.278Z,49.38
2022-11-29T10:59:22.057Z,47.56
2022-11-29T11:00:12.066Z,46.98
2022-11-29T11:01:15.109Z,47.72
2022-11-29T11:02:17.074Z,51.58
2022-11-29T11:03:15.072Z,52.38
2022-11-29T11:04:15.071Z,43.26
2022-11-29T11:05:14.136Z,48.82
2022-11-29T11:06:19.091Z,51.36
2022-11-29T11:07:19.095Z,47.48
2022-11-29T11:08:17.071Z,59.24
2022-11-29T11:09:20.072Z,36.58
2022-11-29T11:10:21.077Z,42.24
2022-11-29T11:11:11.069Z,53.58
2022-11-29T11:12:19.069Z,49.56
2022-11-29T11:13:19.068Z,47.72
2022-11-29T11:14:20.087Z,46.32
2022-11-29T11:15:19.078Z,45.08
2022-11-29T11:16:15.124Z,48.90
2022-11-29T11:17:19.069Z,44.70
2022-11-29T11:18:19.072Z,50.04
2022-11-29T11:19:19.072Z,40.22
2022-11-29T11:20:19.071Z,51.80
2022-11-29T11:21:11.072Z,42.02
2022-11-29T11:22:19.074Z,49.60
2022-11-29T11:23:19.072Z,52.36
2022-11-29T11:24:19.071Z,42.00
2022-11-29T11:25:19.072Z,45.14
2022-11-29T11:26:14.071Z,45.20
2022-11-29T11:27:11.071Z,40.76
2022-11-29T11:28:19.072Z,50.10
2022-11-29T11:29:17.071Z,46.14
2022-11-29T11:30:19.066Z,78.60
2022-11-29T11:31:12.142Z,42.04
2022-11-29T11:32:17.074Z,39.16
2022-11-29T11:33:19.068Z,43.92
2022-11-29T11:34:19.065Z,43.64
2022-11-29T11:35:21.070Z,42.60
2022-11-29T11:36:19.079Z,43.40
2022-11-29T11:37:19.073Z,36.82
2022-11-29T11:38:17.072Z,46.56
2022-11-29T11:39:20.073Z,38.68
2022-11-29T11:40:19.156Z,44.92
2022-11-29T11:41:19.075Z,42.56
2022-11-29T11:42:20.070Z,32.02
2022-11-29T11:43:18.071Z,42.96
2022-11-29T11:44:45.719Z,38.82
2022-11-29T11:45:23.068Z,40.56
2022-11-29T11:46:13.944Z,38.20
2022-11-29T11:47:18.109Z,38.98
2022-11-29T11:48:14.062Z,35.46
2022-11-29T11:49:14.060Z,34.10
2022-11-29T11:50:17.070Z,38.64
2022-11-29T11:51:19.059Z,37.62
2022-11-29T11:52:19.059Z,36.56
2022-11-29T11:53:19.061Z,34.40
2022-11-29T11:54:15.063Z,48.58
2022-11-29T11:55:19.064Z,36.66
2022-11-29T11:56:12.068Z,40.94
2022-11-29T11:57:17.061Z,36.38
2022-11-29T11:58:18.074Z,46.86
2022-11-29T11:59:19.061Z,38.16
2022-11-29T12:00:40.646Z,34.22
2022-11-29T12:01:21.049Z,38.86
2022-11-29T12:02:19.097Z,44.68
2022-11-29T12:03:19.128Z,40.38
2022-11-29T12:04:19.064Z,43.90
2022-11-29T12:05:19.063Z,49.76
2022-11-29T12:06:21.062Z,48.50
2022-11-29T12:07:33.961Z,43.12
2022-11-29T12:08:14.233Z,38.48
2022-11-29T12:09:19.063Z,39.72
2022-11-29T12:10:21.061Z,42.82
2022-11-29T12:11:14.081Z,39.36
2022-11-29T12:12:21.072Z,40.90
2022-11-29T12:13:17.066Z,43.76
2022-11-29T12:14:16.062Z,39.84
2022-11-29T12:15:19.059Z,35.70
2022-11-29T12:16:16.111Z,40.22
2022-11-29T12:17:20.330Z,39.98
2022-11-29T12:18:16.075Z,43.24
2022-11-29T12:19:21.066Z,41.92
2022-11-29T12:20:21.067Z,28.06
2022-11-29T12:21:15.062Z,44.48
2022-11-29T12:22:18.066Z,31.32
2022-11-29T12:23:19.063Z,37.88
2022-11-29T12:24:19.061Z,39.54
2022-11-29T12:25:17.064Z,37.60
2022-11-29T12:26:34.789Z,38.68
2022-11-29T12:27:14.128Z,40.20
2022-11-29T12:28:20.035Z,33.42
2022-11-29T12:29:20.049Z,40.42
2022-11-29T12:30:16.066Z,33.60
2022-11-29T12:31:21.110Z,37.40
2022-11-29T12:32:19.062Z,34.10
2022-11-29T12:33:21.063Z,38.54
2022-11-29T12:34:22.416Z,37.30
2022-11-29T12:35:19.285Z,35.48
2022-11-29T12:36:19.067Z,33.44
2022-11-29T12:37:21.064Z,36.14
2022-11-29T12:38:21.079Z,34.38
2022-11-29T12:39:23.068Z,37.08
2022-11-29T12:40:19.066Z,37.96
2022-11-29T12:41:19.072Z,33.06
2022-11-29T12:42:19.066Z,31.60
2022-11-29T12:43:19.066Z,39.44
2022-11-29T12:44:21.067Z,33.80
2022-11-29T12:45:23.067Z,31.92
2022-11-29T12:46:18.153Z,31.66
2022-11-29T12:47:36.015Z,35.48
2022-11-29T12:48:23.831Z,29.88
2022-11-29T12:49:19.066Z,32.22
2022-11-29T12:50:19.071Z,35.08